createdAt,value
2023-05-15T00:03:12.430Z,48.21
2023-05-15T00:08:14.623Z,48.55
2023-05-15T00:13:19.660Z,48.96
2023-05-15T00:18:21.617Z,49.38
2023-05-15T00:23:23.766Z,49.61
2023-05-15T00:28:25.782Z,49.55
2023-05-15T00:33:27.965Z,49.55
2023-05-15T00:38:33.705Z,49.31
2023-05-15T00:43:36.551Z,49.51
2023-05-15T00:48:39.457Z,50.70
2023-05-15T00:53:41.841Z,51.11
2023-05-15T00:58:46.157Z,51.02
2023-05-15T01:03:48.057Z,50.85
2023-05-15T01:08:50.255Z,50.81
2023-05-15T01:13:52.371Z,51.58
2023-05-15T01:18:54.601Z,51.94
2023-05-15T01:24:26.355Z,52.13
2023-05-15T01:29:34.044Z,52.27
2023-05-15T01:34:52.420Z,51.80
2023-05-15T01:39:57.893Z,51.43
2023-05-15T01:45:05.948Z,51.66
2023-05-15T01:50:10.529Z,51.59
2023-05-15T01:55:13.867Z,51.80
2023-05-15T02:00:17.260Z,52.31
2023-05-15T02:05:19.829Z,52.58
2023-05-15T02:10:22.567Z,53.63
2023-05-15T02:15:25.120Z,53.85
2023-05-15T02:20:27.560Z,54.39
2023-05-15T02:25:38.177Z,54.63
2023-05-15T02:30:55.858Z,54.93
2023-05-15T02:36:03.795Z,55.31
2023-05-15T02:41:06.456Z,56.19
2023-05-15T02:46:08.848Z,55.70
2023-05-15T02:51:11.033Z,55.61
2023-05-15T02:56:13.258Z,55.26
2023-05-15T03:01:15.202Z,55.43
2023-05-15T03:06:18.897Z,55.59
2023-05-15T03:11:21.457Z,56.47
2023-05-15T03:16:23.897Z,55.99
2023-05-15T03:21:26.211Z,56.04
2023-05-15T03:26:28.430Z,57.01
2023-05-15T03:31:30.646Z,56.47
2023-05-15T03:36:32.843Z,56.54
2023-05-15T03:41:34.764Z,57.01
2023-05-15T03:46:36.668Z,57.48
2023-05-15T03:51:38.829Z,57.50
2023-05-15T03:56:40.806Z,57.95
2023-05-15T04:01:59.274Z,58.04
2023-05-15T04:07:06.322Z,58.97
2023-05-15T04:12:08.515Z,59.06
2023-05-15T04:17:10.467Z,59.03
2023-05-15T04:22:12.353Z,59.14
2023-05-15T04:27:14.368Z,58.73
2023-05-15T04:32:16.249Z,58.57
2023-05-15T04:37:18.241Z,59.05
2023-05-15T04:42:20.245Z,58.95
2023-05-15T04:47:22.150Z,59.22
2023-05-15T04:52:24.025Z,60.22
2023-05-15T04:57:26.797Z,61.26
2023-05-15T05:02:28.837Z,62.12
2023-05-15T05:07:30.846Z,62.08
2023-05-15T05:12:33.120Z,62.14
2023-05-15T05:17:35.108Z,61.91
2023-05-15T05:22:37.974Z,62.11
2023-05-15T05:27:42.802Z,61.01
2023-05-15T05:32:44.783Z,61.63
2023-05-15T05:37:46.811Z,61.49
2023-05-15T05:42:48.755Z,61.26
2023-05-15T05:47:50.809Z,60.82
2023-05-15T05:52:52.681Z,62.09
2023-05-15T05:57:54.693Z,62.41
2023-05-15T06:02:58.604Z,63.29
2023-05-15T06:08:04.029Z,63.28
2023-05-15T06:13:05.983Z,63.04
2023-05-15T06:18:08.089Z,63.76
2023-05-15T06:23:10.340Z,63.96
2023-05-15T06:28:12.262Z,63.89
2023-05-15T06:33:14.250Z,63.25
2023-05-15T06:38:16.382Z,62.58
2023-05-15T06:43:18.409Z,61.90
2023-05-15T06:48:20.436Z,61.31
2023-05-15T06:53:22.430Z,60.95
2023-05-15T06:58:24.888Z,60.98
2023-05-15T07:03:26.912Z,60.40
2023-05-15T07:08:28.970Z,59.07
2023-05-15T07:13:31.007Z,59.08
2023-05-15T07:18:32.994Z,58.46
2023-05-15T07:23:34.944Z,59.29
2023-05-15T07:28:37.812Z,57.42
2023-05-15T07:33:39.767Z,54.90
2023-05-15T07:38:41.751Z,55.10
2023-05-15T07:43:43.714Z,54.87
2023-05-15T07:48:45.706Z,54.05
2023-05-15T07:53:47.671Z,52.19
2023-05-15T07:58:49.560Z,52.72
2023-05-15T08:03:51.758Z,50.31
2023-05-15T08:08:53.720Z,50.17
2023-05-15T08:13:55.717Z,48.43
2023-05-15T08:19:02.095Z,46.79
2023-05-15T08:24:04.239Z,46.62
2023-05-15T08:29:06.265Z,43.18
2023-05-15T08:34:09.018Z,43.15
2023-05-15T08:39:11.691Z,41.66
2023-05-15T08:44:15.448Z,41.11
2023-05-15T08:49:21.233Z,40.24
2023-05-15T08:54:23.808Z,39.84
2023-05-15T08:59:26.520Z,40.23
2023-05-15T09:04:29.509Z,37.23
2023-05-15T09:09:35.071Z,37.10
2023-05-15T09:14:38.220Z,36.88
2023-05-15T09:19:46.776Z,37.83
2023-05-15T09:24:53.134Z,39.07
2023-05-15T09:29:58.448Z,40.79
2023-05-15T09:35:00.829Z,38.94
2023-05-15T09:40:11.124Z,38.92
2023-05-15T09:45:19.229Z,36.62
2023-05-15T09:50:28.683Z,36.52
2023-05-15T09:55:36.849Z,33.40
2023-05-15T10:00:48.144Z,31.27
2023-05-15T10:06:01.019Z,31.63
2023-05-15T10:11:04.393Z,31.68
2023-05-15T10:16:06.273Z,31.12
2023-05-15T10:21:12.243Z,29.23
2023-05-15T10:26:41.346Z,26.10
2023-05-15T10:31:43.621Z,24.56
2023-05-15T10:36:46.045Z,25.06
2023-05-15T10:41:50.886Z,23.30
2023-05-15T10:46:53.406Z,23.64
2023-05-15T10:51:55.338Z,23.64
2023-05-15T10:56:57.576Z,22.45
2023-05-15T11:02:20.476Z,22.59
2023-05-15T11:07:24.193Z,22.40
2023-05-15T11:12:26.063Z,23.20
2023-05-15T11:17:33.347Z,22.12
2023-05-15T11:22:39.060Z,21.88
2023-05-15T11:27:46.428Z,21.96
2023-05-15T11:32:59.730Z,22.39
2023-05-15T11:38:13.264Z,23.10
2023-05-15T11:43:32.118Z,22.23
2023-05-15T11:48:42.108Z,23.41
2023-05-15T11:53:44.361Z,23.00
2023-05-15T11:59:06.445Z,22.33
2023-05-15T12:04:15.690Z,23.34
2023-05-15T12:09:19.549Z,24.94
2023-05-15T12:14:32.517Z,24.05
2023-05-15T12:19:36.419Z,23.69
2023-05-15T12:25:01.304Z,22.58
2023-05-15T12:30:05.261Z,24.47
2023-05-15T12:35:08.678Z,25.25
2023-05-15T12:40:11.875Z,24.28
2023-05-15T12:45:18.795Z,24.24
2023-05-15T12:50:24.167Z,26.74
2023-05-15T12:55:36.691Z,24.57
2023-05-15T13:00:46.408Z,25.37
2023-05-15T13:05:49.050Z,23.69
2023-05-15T13:11:01.196Z,24.52
2023-05-15T13:16:03.394Z,24.58
2023-05-15T13:21:08.589Z,25.38
2023-05-15T13:26:10.641Z,24.81
2023-05-15T13:31:12.821Z,24.52
2023-05-15T13:36:15.053Z,24.83
2023-05-15T13:41:16.950Z,25.02
2023-05-15T13:46:19.279Z,26.13
2023-05-15T13:51:21.354Z,26.00
2023-05-15T13:56:23.314Z,26.70
2023-05-15T14:01:25.877Z,27.08
2023-05-15T14:06:28.064Z,25.70
2023-05-15T14:11:29.885Z,26.25
2023-05-15T14:16:32.482Z,26.74
2023-05-15T14:21:34.434Z,26.81
2023-05-15T14:26:36.682Z,26.34
2023-05-15T14:31:39.150Z,27.57
2023-05-15T14:36:41.328Z,27.02
2023-05-15T14:41:44.151Z,27.00
2023-05-15T14:46:46.237Z,27.81
2023-05-15T14:51:48.261Z,27.38
2023-05-15T14:56:50.146Z,27.26
2023-05-15T15:01:52.147Z,27.30
2023-05-15T15:06:57.215Z,26.34
2023-05-15T15:11:59.169Z,27.00
2023-05-15T15:17:01.173Z,27.32
2023-05-15T15:22:03.073Z,27.84
2023-05-15T15:27:07.010Z,27.25
2023-05-15T15:32:09.039Z,27.53
2023-05-15T15:37:11.678Z,27.85
2023-05-15T15:42:13.905Z,28.60
2023-05-15T15:47:15.892Z,29.01
2023-05-15T15:52:21.054Z,29.27
2023-05-15T15:57:23.585Z,29.67
2023-05-15T16:02:25.705Z,29.77
2023-05-15T16:07:28.241Z,30.12
2023-05-15T16:12:30.736Z,29.68
2023-05-15T16:17:35.020Z,30.24
2023-05-15T16:22:37.875Z,30.78
2023-05-15T16:27:40.348Z,31.50
2023-05-15T16:32:42.496Z,31.56
2023-05-15T16:37:44.868Z,32.21
2023-05-15T16:42:47.188Z,31.98
2023-05-15T16:47:49.313Z,31.91
2023-05-15T16:52:51.562Z,31.65
2023-05-15T16:57:53.469Z,31.76
2023-05-15T17:02:55.513Z,31.85
2023-05-15T17:07:58.081Z,32.29
2023-05-15T17:13:00.047Z,32.07
2023-05-15T17:18:02.214Z,32.38
2023-05-15T17:23:04.276Z,33.01
2023-05-15T17:28:06.351Z,32.75
2023-05-15T17:33:08.798Z,32.68
2023-05-15T17:38:12.336Z,33.05
2023-05-15T17:43:14.438Z,33.34
2023-05-15T17:48:16.697Z,33.72
2023-05-15T17:53:18.768Z,33.97
2023-05-15T17:58:21.430Z,33.76
2023-05-15T18:03:23.918Z,33.88
2023-05-15T18:08:26.197Z,34.10
2023-05-15T18:13:30.268Z,34.58
2023-05-15T18:18:34.506Z,34.60
2023-05-15T18:23:36.445Z,34.54
2023-05-15T18:28:38.302Z,34.89
2023-05-15T18:33:41.837Z,34.90
2023-05-15T18:38:43.896Z,34.62
2023-05-15T18:43:45.888Z,35.06
2023-05-15T18:48:48.005Z,36.19
2023-05-15T18:53:50.049Z,37.02
2023-05-15T18:58:52.011Z,37.42
2023-05-15T19:03:54.144Z,37.61
2023-05-15T19:08:56.405Z,37.65
2023-05-15T19:13:58.308Z,38.29
2023-05-15T19:19:00.661Z,38.29
2023-05-15T19:24:03.411Z,38.77
2023-05-15T19:29:05.588Z,39.20
2023-05-15T19:34:08.974Z,39.30
2023-05-15T19:39:12.348Z,39.64
2023-05-15T19:44:14.469Z,39.69
2023-05-15T19:49:16.365Z,39.88
2023-05-15T19:54:18.368Z,40.29
2023-05-15T19:59:20.411Z,40.17
2023-05-15T20:04:22.588Z,40.87
2023-05-15T20:09:24.708Z,41.03
2023-05-15T20:14:26.532Z,40.90
2023-05-15T20:19:31.920Z,41.20
2023-05-15T20:24:34.399Z,41.53
2023-05-15T20:29:38.401Z,41.35
2023-05-15T20:34:42.674Z,41.27
2023-05-15T20:39:44.855Z,41.08
2023-05-15T20:44:47.482Z,41.32
2023-05-15T20:49:49.682Z,41.95
2023-05-15T20:54:51.744Z,42.04
2023-05-15T20:59:54.631Z,42.09
2023-05-15T21:04:57.259Z,42.41
2023-05-15T21:09:59.824Z,42.20
2023-05-15T21:15:05.886Z,42.47
2023-05-15T21:20:08.804Z,42.90
2023-05-15T21:25:11.622Z,43.08
2023-05-15T21:30:16.849Z,43.33
2023-05-15T21:35:19.137Z,43.36
2023-05-15T21:40:21.296Z,43.31
2023-05-15T21:45:26.276Z,43.54
2023-05-15T21:50:28.595Z,43.95
2023-05-15T21:55:31.579Z,44.15
2023-05-15T22:00:33.637Z,44.37
2023-05-15T22:05:38.272Z,44.45
2023-05-15T22:10:40.470Z,44.50
2023-05-15T22:15:42.514Z,44.58
2023-05-15T22:20:45.294Z,44.21
2023-05-15T22:25:49.239Z,43.91
2023-05-15T22:30:51.336Z,43.58
2023-05-15T22:35:54.648Z,43.81
2023-05-15T22:40:56.525Z,44.17
2023-05-15T22:45:58.551Z,44.06
2023-05-15T22:51:02.673Z,44.29
2023-05-15T22:56:05.029Z,44.31
2023-05-15T23:01:07.077Z,44.59
2023-05-15T23:06:10.464Z,44.38
2023-05-15T23:11:12.839Z,44.64
2023-05-15T23:16:15.711Z,44.45
2023-05-15T23:21:18.689Z,44.91
2023-05-15T23:26:22.589Z,44.50
2023-05-15T23:31:25.912Z,44.66
2023-05-15T23:36:28.011Z,44.64
2023-05-15T23:41:30.291Z,44.11
2023-05-15T23:46:38.363Z,43.74
2023-05-15T23:51:40.558Z,43.51
2023-05-15T23:56:42.732Z,43.28
